sensor_id;sensor_type;location;lat;lon;timestamp;P1;durP1;ratioP1;P2;durP2;ratioP2
80653;SDS011;70020;45.524;10.240;2024-01-06T00:00:30;11.85;;;10.60;;
80653;SDS011;70020;45.524;10.240;2024-01-06T00:02:55;12.13;;;10.75;;
80653;SDS011;70020;45.524;10.240;2024-01-06T00:05:21;12.97;;;11.33;;
80653;SDS011;70020;45.524;10.240;2024-01-06T00:07:47;12.63;;;11.33;;
80653;SDS011;70020;45.524;10.240;2024-01-06T00:10:13;13.27;;;11.20;;
80653;SDS011;70020;45.524;10.240;2024-01-06T00:12:40;12.68;;;11.23;;
80653;SDS011;70020;45.524;10.240;2024-01-06T00:15:06;13.63;;;11.83;;
80653;SDS011;70020;45.524;10.240;2024-01-06T00:17:34;13.30;;;11.80;;
80653;SDS011;70020;45.524;10.240;2024-01-06T00:20:00;14.45;;;12.55;;
80653;SDS011;70020;45.524;10.240;2024-01-06T00:22:27;15.52;;;12.85;;
80653;SDS011;70020;45.524;10.240;2024-01-06T00:24:53;15.18;;;13.35;;
80653;SDS011;70020;45.524;10.240;2024-01-06T00:27:19;15.57;;;13.20;;
80653;SDS011;70020;45.524;10.240;2024-01-06T00:29:45;16.30;;;13.18;;
80653;SDS011;70020;45.524;10.240;2024-01-06T00:32:12;14.05;;;12.57;;
80653;SDS011;70020;45.524;10.240;2024-01-06T00:34:38;15.48;;;13.73;;
80653;SDS011;70020;45.524;10.240;2024-01-06T00:37:04;16.00;;;13.77;;
80653;SDS011;70020;45.524;10.240;2024-01-06T00:39:30;16.13;;;13.30;;
80653;SDS011;70020;45.524;10.240;2024-01-06T00:41:57;14.30;;;12.80;;
80653;SDS011;70020;45.524;10.240;2024-01-06T00:44:23;14.80;;;13.10;;
80653;SDS011;70020;45.524;10.240;2024-01-06T00:46:49;15.90;;;14.23;;
80653;SDS011;70020;45.524;10.240;2024-01-06T00:49:15;15.73;;;13.63;;
80653;SDS011;70020;45.524;10.240;2024-01-06T00:51:40;16.17;;;14.48;;
80653;SDS011;70020;45.524;10.240;2024-01-06T00:54:07;16.05;;;14.35;;
80653;SDS011;70020;45.524;10.240;2024-01-06T00:56:32;16.80;;;14.43;;
80653;SDS011;70020;45.524;10.240;2024-01-06T00:58:58;17.20;;;15.38;;
80653;SDS011;70020;45.524;10.240;2024-01-06T01:01:26;17.60;;;15.52;;
80653;SDS011;70020;45.524;10.240;2024-01-06T01:03:52;17.77;;;15.43;;
80653;SDS011;70020;45.524;10.240;2024-01-06T01:06:18;18.58;;;16.58;;
80653;SDS011;70020;45.524;10.240;2024-01-06T01:08:47;19.07;;;17.03;;
80653;SDS011;70020;45.524;10.240;2024-01-06T01:11:14;18.58;;;15.90;;
80653;SDS011;70020;45.524;10.240;2024-01-06T01:13:40;17.52;;;15.65;;
80653;SDS011;70020;45.524;10.240;2024-01-06T01:16:05;19.47;;;16.17;;
80653;SDS011;70020;45.524;10.240;2024-01-06T01:20:58;31.95;;;17.10;;
80653;SDS011;70020;45.524;10.240;2024-01-06T01:23:24;21.20;;;17.77;;
80653;SDS011;70020;45.524;10.240;2024-01-06T01:25:50;22.00;;;16.93;;
80653;SDS011;70020;45.524;10.240;2024-01-06T01:28:16;18.90;;;16.00;;
80653;SDS011;70020;45.524;10.240;2024-01-06T01:30:43;19.17;;;16.10;;
80653;SDS011;70020;45.524;10.240;2024-01-06T01:33:09;20.73;;;17.70;;
80653;SDS011;70020;45.524;10.240;2024-01-06T01:35:35;19.45;;;16.83;;
80653;SDS011;70020;45.524;10.240;2024-01-06T01:38:01;19.65;;;16.00;;
80653;SDS011;70020;45.524;10.240;2024-01-06T01:40:28;21.67;;;16.98;;
80653;SDS011;70020;45.524;10.240;2024-01-06T01:42:54;18.50;;;15.52;;
80653;SDS011;70020;45.524;10.240;2024-01-06T01:45:19;18.10;;;16.10;;
80653;SDS011;70020;45.524;10.240;2024-01-06T01:47:45;16.73;;;14.60;;
80653;SDS011;70020;45.524;10.240;2024-01-06T01:50:11;17.13;;;13.80;;
80653;SDS011;70020;45.524;10.240;2024-01-06T01:52:37;17.10;;;14.25;;
80653;SDS011;70020;45.524;10.240;2024-01-06T01:55:06;16.38;;;14.32;;
80653;SDS011;70020;45.524;10.240;2024-01-06T01:57:32;15.48;;;13.43;;
80653;SDS011;70020;45.524;10.240;2024-01-06T01:59:59;15.05;;;13.13;;
80653;SDS011;70020;45.524;10.240;2024-01-06T02:02:26;15.40;;;13.38;;
80653;SDS011;70020;45.524;10.240;2024-01-06T02:04:54;15.35;;;13.40;;
80653;SDS011;70020;45.524;10.240;2024-01-06T02:07:21;16.33;;;12.95;;
80653;SDS011;70020;45.524;10.240;2024-01-06T02:09:47;16.38;;;12.77;;
80653;SDS011;70020;45.524;10.240;2024-01-06T02:12:13;14.43;;;11.87;;
80653;SDS011;70020;45.524;10.240;2024-01-06T02:14:39;13.87;;;12.37;;
80653;SDS011;70020;45.524;10.240;2024-01-06T02:17:06;14.48;;;12.50;;
80653;SDS011;70020;45.524;10.240;2024-01-06T02:19:32;13.73;;;12.23;;
80653;SDS011;70020;45.524;10.240;2024-01-06T02:21:58;14.00;;;12.47;;
80653;SDS011;70020;45.524;10.240;2024-01-06T02:24:24;14.13;;;12.35;;
80653;SDS011;70020;45.524;10.240;2024-01-06T02:26:51;14.38;;;12.52;;
80653;SDS011;70020;45.524;10.240;2024-01-06T02:29:17;15.05;;;12.85;;
80653;SDS011;70020;45.524;10.240;2024-01-06T02:31:44;15.95;;;12.98;;
80653;SDS011;70020;45.524;10.240;2024-01-06T02:34:10;13.98;;;12.32;;
80653;SDS011;70020;45.524;10.240;2024-01-06T02:36:36;13.38;;;11.88;;
80653;SDS011;70020;45.524;10.240;2024-01-06T02:39:05;13.70;;;11.50;;
80653;SDS011;70020;45.524;10.240;2024-01-06T02:41:34;12.35;;;10.95;;
80653;SDS011;70020;45.524;10.240;2024-01-06T02:44:00;11.77;;;10.57;;
80653;SDS011;70020;45.524;10.240;2024-01-06T02:46:27;11.80;;;10.50;;
80653;SDS011;70020;45.524;10.240;2024-01-06T02:48:53;11.15;;;9.95;;
80653;SDS011;70020;45.524;10.240;2024-01-06T02:51:20;11.25;;;9.82;;
80653;SDS011;70020;45.524;10.240;2024-01-06T02:53:49;11.38;;;10.15;;
80653;SDS011;70020;45.524;10.240;2024-01-06T02:56:16;12.00;;;10.27;;
80653;SDS011;70020;45.524;10.240;2024-01-06T02:58:42;11.17;;;9.97;;
80653;SDS011;70020;45.524;10.240;2024-01-06T03:01:08;10.80;;;9.55;;
80653;SDS011;70020;45.524;10.240;2024-01-06T03:03:33;11.30;;;10.10;;
80653;SDS011;70020;45.524;10.240;2024-01-06T03:06:00;10.73;;;9.63;;
80653;SDS011;70020;45.524;10.240;2024-01-06T03:08:27;11.52;;;9.93;;
80653;SDS011;70020;45.524;10.240;2024-01-06T03:10:56;11.68;;;10.10;;
80653;SDS011;70020;45.524;10.240;2024-01-06T03:13:21;11.70;;;10.50;;
80653;SDS011;70020;45.524;10.240;2024-01-06T03:15:48;11.98;;;10.55;;
80653;SDS011;70020;45.524;10.240;2024-01-06T03:18:14;17.47;;;10.93;;
80653;SDS011;70020;45.524;10.240;2024-01-06T03:20:39;12.33;;;10.67;;
80653;SDS011;70020;45.524;10.240;2024-01-06T03:23:06;12.25;;;10.93;;
80653;SDS011;70020;45.524;10.240;2024-01-06T03:25:31;11.53;;;10.33;;
80653;SDS011;70020;45.524;10.240;2024-01-06T03:27:58;13.30;;;10.80;;
80653;SDS011;70020;45.524;10.240;2024-01-06T03:32:50;13.85;;;11.85;;
80653;SDS011;70020;45.524;10.240;2024-01-06T03:35:16;14.67;;;12.70;;
80653;SDS011;70020;45.524;10.240;2024-01-06T03:37:43;17.00;;;13.32;;
80653;SDS011;70020;45.524;10.240;2024-01-06T03:40:09;15.20;;;13.02;;
80653;SDS011;70020;45.524;10.240;2024-01-06T03:42:36;16.88;;;13.02;;
80653;SDS011;70020;45.524;10.240;2024-01-06T03:45:02;16.63;;;13.00;;
80653;SDS011;70020;45.524;10.240;2024-01-06T03:47:29;14.07;;;12.00;;
80653;SDS011;70020;45.524;10.240;2024-01-06T03:49:55;15.70;;;13.37;;
80653;SDS011;70020;45.524;10.240;2024-01-06T03:52:21;14.20;;;12.43;;
80653;SDS011;70020;45.524;10.240;2024-01-06T03:54:48;14.68;;;12.93;;
80653;SDS011;70020;45.524;10.240;2024-01-06T03:57:14;13.88;;;12.25;;
80653;SDS011;70020;45.524;10.240;2024-01-06T03:59:39;14.83;;;12.77;;
80653;SDS011;70020;45.524;10.240;2024-01-06T04:02:05;15.57;;;12.90;;
80653;SDS011;70020;45.524;10.240;2024-01-06T04:04:32;16.15;;;13.15;;
80653;SDS011;70020;45.524;10.240;2024-01-06T04:06:58;17.00;;;13.30;;
80653;SDS011;70020;45.524;10.240;2024-01-06T04:09:26;16.42;;;13.65;;
80653;SDS011;70020;45.524;10.240;2024-01-06T04:11:52;15.65;;;12.98;;
80653;SDS011;70020;45.524;10.240;2024-01-06T04:14:18;15.30;;;12.82;;
80653;SDS011;70020;45.524;10.240;2024-01-06T04:16:44;15.15;;;13.20;;
80653;SDS011;70020;45.524;10.240;2024-01-06T04:19:10;17.10;;;14.00;;
80653;SDS011;70020;45.524;10.240;2024-01-06T04:21:40;17.63;;;13.93;;
80653;SDS011;70020;45.524;10.240;2024-01-06T04:24:05;18.40;;;14.13;;
80653;SDS011;70020;45.524;10.240;2024-01-06T04:28:58;16.67;;;13.60;;
80653;SDS011;70020;45.524;10.240;2024-01-06T04:31:24;17.27;;;13.63;;
80653;SDS011;70020;45.524;10.240;2024-01-06T04:33:49;15.67;;;13.63;;
80653;SDS011;70020;45.524;10.240;2024-01-06T04:36:16;17.92;;;13.65;;
80653;SDS011;70020;45.524;10.240;2024-01-06T04:38:42;17.15;;;13.48;;
80653;SDS011;70020;45.524;10.240;2024-01-06T04:41:09;15.82;;;13.23;;
80653;SDS011;70020;45.524;10.240;2024-01-06T04:43:35;17.40;;;13.63;;
80653;SDS011;70020;45.524;10.240;2024-01-06T04:46:01;15.53;;;12.77;;
80653;SDS011;70020;45.524;10.240;2024-01-06T04:48:27;18.80;;;13.43;;
80653;SDS011;70020;45.524;10.240;2024-01-06T04:50:53;15.43;;;12.85;;
80653;SDS011;70020;45.524;10.240;2024-01-06T04:53:19;15.70;;;13.30;;
80653;SDS011;70020;45.524;10.240;2024-01-06T04:55:45;15.27;;;13.18;;
80653;SDS011;70020;45.524;10.240;2024-01-06T04:58:11;15.95;;;12.95;;
80653;SDS011;70020;45.524;10.240;2024-01-06T05:00:38;14.63;;;12.48;;
80653;SDS011;70020;45.524;10.240;2024-01-06T05:03:03;17.07;;;13.33;;
80653;SDS011;70020;45.524;10.240;2024-01-06T05:07:56;15.30;;;12.23;;
80653;SDS011;70020;45.524;10.240;2024-01-06T05:10:23;14.90;;;12.80;;
80653;SDS011;70020;45.524;10.240;2024-01-06T05:12:49;17.00;;;13.07;;
80653;SDS011;70020;45.524;10.240;2024-01-06T05:15:15;14.60;;;12.70;;
80653;SDS011;70020;45.524;10.240;2024-01-06T05:17:41;18.40;;;13.35;;
80653;SDS011;70020;45.524;10.240;2024-01-06T05:20:07;17.17;;;13.40;;
80653;SDS011;70020;45.524;10.240;2024-01-06T05:22:34;17.73;;;12.85;;
80653;SDS011;70020;45.524;10.240;2024-01-06T05:25:01;16.27;;;12.95;;
80653;SDS011;70020;45.524;10.240;2024-01-06T05:27:27;17.17;;;13.63;;
80653;SDS011;70020;45.524;10.240;2024-01-06T05:29:54;15.82;;;13.30;;
80653;SDS011;70020;45.524;10.240;2024-01-06T05:32:19;16.23;;;13.17;;
80653;SDS011;70020;45.524;10.240;2024-01-06T05:34:45;18.00;;;14.07;;
80653;SDS011;70020;45.524;10.240;2024-01-06T05:37:11;20.38;;;14.85;;
80653;SDS011;70020;45.524;10.240;2024-01-06T05:39:38;18.60;;;15.07;;
80653;SDS011;70020;45.524;10.240;2024-01-06T05:42:04;17.73;;;14.07;;
80653;SDS011;70020;45.524;10.240;2024-01-06T05:44:30;21.45;;;14.82;;
80653;SDS011;70020;45.524;10.240;2024-01-06T05:46:56;15.70;;;12.87;;
80653;SDS011;70020;45.524;10.240;2024-01-06T05:49:23;16.13;;;13.48;;
80653;SDS011;70020;45.524;10.240;2024-01-06T05:51:49;16.98;;;13.77;;
80653;SDS011;70020;45.524;10.240;2024-01-06T05:54:15;17.27;;;14.03;;
80653;SDS011;70020;45.524;10.240;2024-01-06T05:56:41;17.67;;;14.05;;
80653;SDS011;70020;45.524;10.240;2024-01-06T05:59:08;17.85;;;13.80;;
80653;SDS011;70020;45.524;10.240;2024-01-06T06:01:33;17.80;;;14.43;;
80653;SDS011;70020;45.524;10.240;2024-01-06T06:04:00;22.17;;;15.10;;
80653;SDS011;70020;45.524;10.240;2024-01-06T06:06:25;19.20;;;14.90;;
80653;SDS011;70020;45.524;10.240;2024-01-06T06:08:51;18.23;;;14.57;;
80653;SDS011;70020;45.524;10.240;2024-01-06T06:11:17;18.30;;;14.50;;
80653;SDS011;70020;45.524;10.240;2024-01-06T06:13:43;18.33;;;14.57;;
80653;SDS011;70020;45.524;10.240;2024-01-06T06:16:09;19.77;;;15.33;;
80653;SDS011;70020;45.524;10.240;2024-01-06T06:18:37;18.05;;;14.15;;
80653;SDS011;70020;45.524;10.240;2024-01-06T06:21:03;18.60;;;14.50;;
80653;SDS011;70020;45.524;10.240;2024-01-06T06:23:30;16.40;;;13.00;;
80653;SDS011;70020;45.524;10.240;2024-01-06T06:25:55;18.55;;;14.40;;
80653;SDS011;70020;45.524;10.240;2024-01-06T06:28:21;16.60;;;13.38;;
80653;SDS011;70020;45.524;10.240;2024-01-06T06:30:47;16.90;;;13.50;;
80653;SDS011;70020;45.524;10.240;2024-01-06T06:33:13;16.25;;;13.30;;
80653;SDS011;70020;45.524;10.240;2024-01-06T06:35:39;18.43;;;13.70;;
80653;SDS011;70020;45.524;10.240;2024-01-06T06:38:05;19.63;;;14.10;;
80653;SDS011;70020;45.524;10.240;2024-01-06T06:40:32;17.92;;;13.63;;
80653;SDS011;70020;45.524;10.240;2024-01-06T06:42:58;18.45;;;14.65;;
80653;SDS011;70020;45.524;10.240;2024-01-06T06:45:23;18.13;;;14.07;;
80653;SDS011;70020;45.524;10.240;2024-01-06T06:47:49;17.20;;;13.57;;
80653;SDS011;70020;45.524;10.240;2024-01-06T06:50:16;19.75;;;13.88;;
80653;SDS011;70020;45.524;10.240;2024-01-06T06:55:08;17.88;;;13.90;;
80653;SDS011;70020;45.524;10.240;2024-01-06T06:57:34;20.20;;;14.52;;
80653;SDS011;70020;45.524;10.240;2024-01-06T07:00:00;19.10;;;15.02;;
80653;SDS011;70020;45.524;10.240;2024-01-06T07:02:26;21.25;;;14.50;;
80653;SDS011;70020;45.524;10.240;2024-01-06T07:04:52;20.67;;;15.25;;
80653;SDS011;70020;45.524;10.240;2024-01-06T07:07:18;18.92;;;14.93;;
80653;SDS011;70020;45.524;10.240;2024-01-06T07:09:44;21.90;;;15.57;;
80653;SDS011;70020;45.524;10.240;2024-01-06T07:12:10;19.02;;;14.75;;
80653;SDS011;70020;45.524;10.240;2024-01-06T07:14:36;23.83;;;16.23;;
80653;SDS011;70020;45.524;10.240;2024-01-06T07:17:03;20.63;;;15.95;;
80653;SDS011;70020;45.524;10.240;2024-01-06T07:19:29;22.10;;;15.90;;
80653;SDS011;70020;45.524;10.240;2024-01-06T07:21:56;21.88;;;16.50;;
80653;SDS011;70020;45.524;10.240;2024-01-06T07:24:23;21.30;;;15.68;;
80653;SDS011;70020;45.524;10.240;2024-01-06T07:26:49;23.40;;;16.70;;
80653;SDS011;70020;45.524;10.240;2024-01-06T07:29:15;23.70;;;17.10;;
80653;SDS011;70020;45.524;10.240;2024-01-06T07:31:41;22.45;;;17.13;;
80653;SDS011;70020;45.524;10.240;2024-01-06T07:34:07;21.08;;;16.10;;
80653;SDS011;70020;45.524;10.240;2024-01-06T07:36:33;22.33;;;16.57;;
80653;SDS011;70020;45.524;10.240;2024-01-06T07:38:58;21.87;;;16.53;;
80653;SDS011;70020;45.524;10.240;2024-01-06T07:41:25;22.35;;;16.45;;
80653;SDS011;70020;45.524;10.240;2024-01-06T07:43:51;23.25;;;17.42;;
80653;SDS011;70020;45.524;10.240;2024-01-06T07:46:18;23.27;;;17.42;;
80653;SDS011;70020;45.524;10.240;2024-01-06T07:48:44;26.85;;;19.80;;
80653;SDS011;70020;45.524;10.240;2024-01-06T07:51:10;26.50;;;19.67;;
80653;SDS011;70020;45.524;10.240;2024-01-06T07:53:36;29.65;;;20.52;;
80653;SDS011;70020;45.524;10.240;2024-01-06T07:56:02;41.10;;;20.42;;
80653;SDS011;70020;45.524;10.240;2024-01-06T07:58:29;23.60;;;15.77;;
80653;SDS011;70020;45.524;10.240;2024-01-06T08:00:55;26.88;;;17.48;;
80653;SDS011;70020;45.524;10.240;2024-01-06T08:03:21;28.88;;;19.95;;
80653;SDS011;70020;45.524;10.240;2024-01-06T08:05:47;28.90;;;18.67;;
80653;SDS011;70020;45.524;10.240;2024-01-06T08:08:13;28.97;;;19.93;;
80653;SDS011;70020;45.524;10.240;2024-01-06T08:10:42;28.75;;;19.95;;
80653;SDS011;70020;45.524;10.240;2024-01-06T08:13:08;30.08;;;19.25;;
80653;SDS011;70020;45.524;10.240;2024-01-06T08:15:34;26.83;;;18.92;;
80653;SDS011;70020;45.524;10.240;2024-01-06T08:18:00;29.87;;;18.70;;
80653;SDS011;70020;45.524;10.240;2024-01-06T08:20:26;27.33;;;19.27;;
80653;SDS011;70020;45.524;10.240;2024-01-06T08:22:53;32.95;;;20.30;;
80653;SDS011;70020;45.524;10.240;2024-01-06T08:25:19;27.50;;;19.00;;
80653;SDS011;70020;45.524;10.240;2024-01-06T08:30:11;29.67;;;20.08;;
80653;SDS011;70020;45.524;10.240;2024-01-06T08:32:37;30.20;;;20.43;;
80653;SDS011;70020;45.524;10.240;2024-01-06T08:35:03;33.03;;;21.87;;
80653;SDS011;70020;45.524;10.240;2024-01-06T08:37:29;36.65;;;22.88;;
80653;SDS011;70020;45.524;10.240;2024-01-06T08:42:21;30.30;;;20.58;;
80653;SDS011;70020;45.524;10.240;2024-01-06T08:44:47;30.98;;;20.60;;
80653;SDS011;70020;45.524;10.240;2024-01-06T08:47:13;31.42;;;21.35;;
80653;SDS011;70020;45.524;10.240;2024-01-06T08:49:38;33.10;;;21.85;;
80653;SDS011;70020;45.524;10.240;2024-01-06T08:52:04;28.30;;;20.93;;
80653;SDS011;70020;45.524;10.240;2024-01-06T08:54:31;30.70;;;21.52;;
80653;SDS011;70020;45.524;10.240;2024-01-06T08:56:57;30.80;;;21.27;;
80653;SDS011;70020;45.524;10.240;2024-01-06T08:59:23;33.60;;;22.50;;
80653;SDS011;70020;45.524;10.240;2024-01-06T09:01:49;33.35;;;21.95;;
80653;SDS011;70020;45.524;10.240;2024-01-06T09:04:16;36.63;;;23.42;;
80653;SDS011;70020;45.524;10.240;2024-01-06T09:06:41;35.77;;;25.17;;
80653;SDS011;70020;45.524;10.240;2024-01-06T09:09:07;33.87;;;22.97;;
80653;SDS011;70020;45.524;10.240;2024-01-06T09:11:33;32.88;;;22.13;;
80653;SDS011;70020;45.524;10.240;2024-01-06T09:14:00;36.35;;;23.58;;
80653;SDS011;70020;45.524;10.240;2024-01-06T09:16:26;37.20;;;24.17;;
80653;SDS011;70020;45.524;10.240;2024-01-06T09:18:51;38.03;;;24.20;;
80653;SDS011;70020;45.524;10.240;2024-01-06T09:21:17;36.73;;;24.27;;
80653;SDS011;70020;45.524;10.240;2024-01-06T09:23:42;37.03;;;24.10;;
80653;SDS011;70020;45.524;10.240;2024-01-06T09:26:09;38.08;;;25.42;;
80653;SDS011;70020;45.524;10.240;2024-01-06T09:28:35;34.78;;;24.60;;
80653;SDS011;70020;45.524;10.240;2024-01-06T09:31:01;39.00;;;25.15;;
80653;SDS011;70020;45.524;10.240;2024-01-06T09:33:27;36.83;;;25.30;;
80653;SDS011;70020;45.524;10.240;2024-01-06T09:35:53;41.63;;;24.60;;
80653;SDS011;70020;45.524;10.240;2024-01-06T09:38:19;37.80;;;24.90;;
80653;SDS011;70020;45.524;10.240;2024-01-06T09:40:45;36.33;;;24.23;;
80653;SDS011;70020;45.524;10.240;2024-01-06T09:43:11;40.30;;;26.30;;
80653;SDS011;70020;45.524;10.240;2024-01-06T09:45:38;38.08;;;24.45;;
80653;SDS011;70020;45.524;10.240;2024-01-06T09:48:11;40.70;;;25.80;;
80653;SDS011;70020;45.524;10.240;2024-01-06T09:50:40;40.15;;;25.20;;
80653;SDS011;70020;45.524;10.240;2024-01-06T09:53:10;38.08;;;24.88;;
80653;SDS011;70020;45.524;10.240;2024-01-06T09:55:37;40.67;;;26.05;;
80653;SDS011;70020;45.524;10.240;2024-01-06T09:58:03;41.85;;;27.15;;
80653;SDS011;70020;45.524;10.240;2024-01-06T10:00:30;42.40;;;26.63;;
80653;SDS011;70020;45.524;10.240;2024-01-06T10:02:58;39.03;;;26.33;;
80653;SDS011;70020;45.524;10.240;2024-01-06T10:05:24;36.08;;;24.58;;
80653;SDS011;70020;45.524;10.240;2024-01-06T10:07:50;36.90;;;24.80;;
80653;SDS011;70020;45.524;10.240;2024-01-06T10:10:16;41.80;;;26.27;;
80653;SDS011;70020;45.524;10.240;2024-01-06T10:12:42;36.67;;;24.50;;
80653;SDS011;70020;45.524;10.240;2024-01-06T10:15:09;36.63;;;24.08;;
80653;SDS011;70020;45.524;10.240;2024-01-06T10:17:36;37.53;;;25.00;;
80653;SDS011;70020;45.524;10.240;2024-01-06T10:20:09;37.50;;;24.00;;
80653;SDS011;70020;45.524;10.240;2024-01-06T10:22:37;41.80;;;24.67;;
80653;SDS011;70020;45.524;10.240;2024-01-06T10:25:07;35.45;;;24.00;;
80653;SDS011;70020;45.524;10.240;2024-01-06T10:27:42;38.03;;;23.48;;
80653;SDS011;70020;45.524;10.240;2024-01-06T10:30:11;33.47;;;23.20;;
80653;SDS011;70020;45.524;10.240;2024-01-06T10:32:39;38.33;;;24.15;;
80653;SDS011;70020;45.524;10.240;2024-01-06T10:35:05;36.10;;;23.53;;
80653;SDS011;70020;45.524;10.240;2024-01-06T10:40:09;36.55;;;23.38;;
80653;SDS011;70020;45.524;10.240;2024-01-06T10:42:36;34.92;;;23.42;;
80653;SDS011;70020;45.524;10.240;2024-01-06T10:45:05;37.33;;;23.63;;
80653;SDS011;70020;45.524;10.240;2024-01-06T10:47:33;38.55;;;24.83;;
80653;SDS011;70020;45.524;10.240;2024-01-06T10:50:00;41.97;;;23.45;;
80653;SDS011;70020;45.524;10.240;2024-01-06T10:52:30;31.90;;;22.20;;
80653;SDS011;70020;45.524;10.240;2024-01-06T10:54:56;35.28;;;23.67;;
80653;SDS011;70020;45.524;10.240;2024-01-06T10:59:51;35.65;;;22.52;;
80653;SDS011;70020;45.524;10.240;2024-01-06T11:02:17;34.60;;;22.73;;
80653;SDS011;70020;45.524;10.240;2024-01-06T11:07:10;34.78;;;22.95;;
80653;SDS011;70020;45.524;10.240;2024-01-06T11:09:39;37.20;;;23.40;;
80653;SDS011;70020;45.524;10.240;2024-01-06T11:12:11;33.70;;;22.85;;
80653;SDS011;70020;45.524;10.240;2024-01-06T11:14:37;35.93;;;22.80;;
80653;SDS011;70020;45.524;10.240;2024-01-06T11:17:03;39.43;;;25.10;;
80653;SDS011;70020;45.524;10.240;2024-01-06T11:22:17;37.78;;;24.48;;
80653;SDS011;70020;45.524;10.240;2024-01-06T11:24:44;41.33;;;24.45;;
80653;SDS011;70020;45.524;10.240;2024-01-06T11:27:19;40.88;;;25.20;;
80653;SDS011;70020;45.524;10.240;2024-01-06T11:29:47;38.85;;;25.48;;
80653;SDS011;70020;45.524;10.240;2024-01-06T11:35:07;41.45;;;25.95;;
80653;SDS011;70020;45.524;10.240;2024-01-06T11:42:34;33.75;;;22.40;;
80653;SDS011;70020;45.524;10.240;2024-01-06T11:45:06;31.70;;;21.67;;
80653;SDS011;70020;45.524;10.240;2024-01-06T11:47:33;28.98;;;20.33;;
80653;SDS011;70020;45.524;10.240;2024-01-06T11:50:00;28.80;;;19.88;;
80653;SDS011;70020;45.524;10.240;2024-01-06T11:52:29;32.20;;;21.60;;
80653;SDS011;70020;45.524;10.240;2024-01-06T11:54:56;29.38;;;20.67;;
80653;SDS011;70020;45.524;10.240;2024-01-06T11:59:48;27.30;;;18.85;;
80653;SDS011;70020;45.524;10.240;2024-01-06T12:02:16;26.33;;;18.83;;
80653;SDS011;70020;45.524;10.240;2024-01-06T12:04:45;26.40;;;19.67;;
80653;SDS011;70020;45.524;10.240;2024-01-06T12:07:19;29.17;;;19.60;;
80653;SDS011;70020;45.524;10.240;2024-01-06T12:09:47;29.65;;;20.17;;
80653;SDS011;70020;45.524;10.240;2024-01-06T12:12:28;26.52;;;19.48;;
80653;SDS011;70020;45.524;10.240;2024-01-06T12:14:54;25.30;;;18.87;;
80653;SDS011;70020;45.524;10.240;2024-01-06T12:17:20;28.63;;;20.33;;
80653;SDS011;70020;45.524;10.240;2024-01-06T12:19:47;28.25;;;20.10;;
80653;SDS011;70020;45.524;10.240;2024-01-06T12:22:14;27.67;;;20.52;;
80653;SDS011;70020;45.524;10.240;2024-01-06T12:24:41;27.48;;;19.58;;
80653;SDS011;70020;45.524;10.240;2024-01-06T12:27:10;25.48;;;19.55;;
80653;SDS011;70020;45.524;10.240;2024-01-06T12:29:42;24.15;;;18.88;;
80653;SDS011;70020;45.524;10.240;2024-01-06T12:32:09;26.77;;;19.08;;
80653;SDS011;70020;45.524;10.240;2024-01-06T12:34:35;23.63;;;18.42;;
80653;SDS011;70020;45.524;10.240;2024-01-06T12:37:02;32.58;;;21.70;;
80653;SDS011;70020;45.524;10.240;2024-01-06T12:39:28;25.58;;;19.33;;
80653;SDS011;70020;45.524;10.240;2024-01-06T12:41:55;24.95;;;19.40;;
80653;SDS011;70020;45.524;10.240;2024-01-06T12:44:21;26.60;;;18.63;;
80653;SDS011;70020;45.524;10.240;2024-01-06T12:46:48;27.42;;;19.67;;
80653;SDS011;70020;45.524;10.240;2024-01-06T12:49:14;24.73;;;18.98;;
80653;SDS011;70020;45.524;10.240;2024-01-06T12:51:40;26.38;;;19.30;;
80653;SDS011;70020;45.524;10.240;2024-01-06T12:54:06;26.63;;;19.03;;
80653;SDS011;70020;45.524;10.240;2024-01-06T12:56:31;25.70;;;19.43;;
80653;SDS011;70020;45.524;10.240;2024-01-06T12:58:57;25.37;;;19.00;;
80653;SDS011;70020;45.524;10.240;2024-01-06T13:01:23;26.60;;;19.80;;
80653;SDS011;70020;45.524;10.240;2024-01-06T13:03:48;25.37;;;18.37;;
80653;SDS011;70020;45.524;10.240;2024-01-06T13:06:14;25.13;;;18.73;;
80653;SDS011;70020;45.524;10.240;2024-01-06T13:08:41;25.83;;;18.50;;
80653;SDS011;70020;45.524;10.240;2024-01-06T13:11:07;25.70;;;19.35;;
80653;SDS011;70020;45.524;10.240;2024-01-06T13:13:33;26.60;;;20.35;;
80653;SDS011;70020;45.524;10.240;2024-01-06T13:15:59;25.63;;;18.87;;
80653;SDS011;70020;45.524;10.240;2024-01-06T13:18:26;23.88;;;18.70;;
80653;SDS011;70020;45.524;10.240;2024-01-06T13:20:53;27.65;;;19.55;;
80653;SDS011;70020;45.524;10.240;2024-01-06T13:23:18;24.43;;;18.23;;
80653;SDS011;70020;45.524;10.240;2024-01-06T13:25:44;25.97;;;19.70;;
80653;SDS011;70020;45.524;10.240;2024-01-06T13:28:10;25.07;;;19.27;;
80653;SDS011;70020;45.524;10.240;2024-01-06T13:30:36;24.73;;;18.90;;
80653;SDS011;70020;45.524;10.240;2024-01-06T13:33:04;27.15;;;19.90;;
80653;SDS011;70020;45.524;10.240;2024-01-06T13:35:30;27.52;;;19.63;;
80653;SDS011;70020;45.524;10.240;2024-01-06T13:37:56;28.55;;;20.50;;
80653;SDS011;70020;45.524;10.240;2024-01-06T13:40:22;28.63;;;20.07;;
80653;SDS011;70020;45.524;10.240;2024-01-06T13:42:49;28.02;;;20.42;;
80653;SDS011;70020;45.524;10.240;2024-01-06T13:45:17;28.52;;;21.33;;
80653;SDS011;70020;45.524;10.240;2024-01-06T13:47:43;28.25;;;21.55;;
80653;SDS011;70020;45.524;10.240;2024-01-06T13:50:12;29.67;;;21.08;;
80653;SDS011;70020;45.524;10.240;2024-01-06T13:55:05;29.50;;;20.90;;
80653;SDS011;70020;45.524;10.240;2024-01-06T13:57:31;27.20;;;20.48;;
80653;SDS011;70020;45.524;10.240;2024-01-06T13:59:57;31.40;;;21.95;;
80653;SDS011;70020;45.524;10.240;2024-01-06T14:02:24;29.55;;;22.08;;
80653;SDS011;70020;45.524;10.240;2024-01-06T14:04:49;31.35;;;23.20;;
80653;SDS011;70020;45.524;10.240;2024-01-06T14:09:44;31.90;;;21.00;;
80653;SDS011;70020;45.524;10.240;2024-01-06T14:12:13;31.23;;;22.77;;
80653;SDS011;70020;45.524;10.240;2024-01-06T14:14:39;31.40;;;22.30;;
80653;SDS011;70020;45.524;10.240;2024-01-06T14:17:06;30.92;;;23.02;;
80653;SDS011;70020;45.524;10.240;2024-01-06T14:19:32;34.08;;;24.10;;
80653;SDS011;70020;45.524;10.240;2024-01-06T14:21:59;31.35;;;23.00;;
80653;SDS011;70020;45.524;10.240;2024-01-06T14:24:24;29.00;;;21.85;;
80653;SDS011;70020;45.524;10.240;2024-01-06T14:26:50;31.33;;;21.97;;
80653;SDS011;70020;45.524;10.240;2024-01-06T14:29:16;31.58;;;23.40;;
80653;SDS011;70020;45.524;10.240;2024-01-06T14:31:45;31.73;;;23.13;;
80653;SDS011;70020;45.524;10.240;2024-01-06T14:34:11;34.83;;;22.92;;
80653;SDS011;70020;45.524;10.240;2024-01-06T14:36:37;31.77;;;21.65;;
80653;SDS011;70020;45.524;10.240;2024-01-06T14:39:04;31.38;;;22.23;;
80653;SDS011;70020;45.524;10.240;2024-01-06T14:41:31;34.58;;;22.48;;
80653;SDS011;70020;45.524;10.240;2024-01-06T14:44:03;31.52;;;22.63;;
80653;SDS011;70020;45.524;10.240;2024-01-06T14:46:30;33.35;;;22.95;;